createdAt,value
2023-03-03T00:01:36.228Z,9.57
2023-03-03T00:04:25.515Z,9.57
2023-03-03T00:07:15.556Z,9.57
2023-03-03T00:10:05.226Z,9.60
2023-03-03T00:12:54.468Z,9.56
2023-03-03T00:15:44.258Z,9.62
2023-03-03T00:18:38.005Z,9.57
2023-03-03T00:21:30.880Z,9.56
2023-03-03T00:24:24.186Z,9.62
2023-03-03T00:27:24.554Z,9.57
2023-03-03T00:30:25.811Z,9.60
2023-03-03T00:33:29.244Z,9.55
2023-03-03T00:36:34.777Z,9.58
2023-03-03T00:39:32.989Z,9.60
2023-03-03T00:42:22.232Z,9.53
2023-03-03T00:45:30.033Z,9.50
2023-03-03T00:48:29.441Z,9.57
2023-03-03T00:51:30.872Z,9.50
2023-03-03T00:54:20.029Z,9.55
2023-03-03T00:57:09.384Z,9.52
2023-03-03T00:59:59.436Z,9.50
2023-03-03T01:02:50.564Z,9.38
2023-03-03T01:05:39.882Z,9.51
2023-03-03T01:08:30.563Z,9.50
2023-03-03T01:11:24.399Z,9.46
2023-03-03T01:14:13.605Z,9.49
2023-03-03T01:17:02.856Z,9.46
2023-03-03T01:19:52.136Z,9.38
2023-03-03T01:22:41.706Z,9.41
2023-03-03T01:25:34.681Z,9.37
2023-03-03T01:28:24.494Z,9.49
2023-03-03T01:31:14.588Z,9.50
2023-03-03T01:34:03.812Z,9.47
2023-03-03T01:36:53.063Z,9.47
2023-03-03T01:39:42.477Z,9.45
2023-03-03T01:42:33.477Z,9.30
2023-03-03T01:45:26.754Z,9.46
2023-03-03T01:48:19.487Z,9.49
2023-03-03T01:51:21.775Z,9.44
2023-03-03T01:54:18.412Z,9.50
2023-03-03T01:57:15.141Z,9.48
2023-03-03T02:00:08.565Z,9.53
2023-03-03T02:03:03.686Z,9.55
2023-03-03T02:05:57.164Z,9.54
2023-03-03T02:09:01.517Z,9.50
2023-03-03T02:11:56.045Z,9.42
2023-03-03T02:14:45.538Z,9.44
2023-03-03T02:17:36.215Z,9.42
2023-03-03T02:20:45.323Z,9.44
2023-03-03T02:23:44.276Z,9.42
2023-03-03T02:26:38.358Z,9.37
2023-03-03T02:29:30.761Z,9.42
2023-03-03T02:32:20.656Z,9.42
2023-03-03T02:35:33.441Z,9.44
2023-03-03T02:38:28.372Z,9.45
2023-03-03T02:41:29.050Z,9.40
2023-03-03T02:44:23.667Z,9.46
2023-03-03T02:47:13.066Z,9.43
2023-03-03T02:50:02.262Z,9.47
2023-03-03T02:52:51.579Z,9.41
2023-03-03T02:55:41.619Z,9.44
2023-03-03T02:58:31.286Z,9.46
2023-03-03T03:01:22.512Z,9.42
2023-03-03T03:04:16.913Z,9.44
2023-03-03T03:07:08.737Z,9.43
2023-03-03T03:09:59.917Z,9.42
2023-03-03T03:12:51.826Z,9.42
2023-03-03T03:15:41.608Z,9.42
2023-03-03T03:18:32.217Z,9.38
2023-03-03T03:21:21.907Z,9.38
2023-03-03T03:24:11.791Z,9.40
2023-03-03T03:27:05.408Z,9.42
2023-03-03T03:29:55.124Z,9.37
2023-03-03T03:32:45.030Z,9.44
2023-03-03T03:35:37.244Z,9.44
2023-03-03T03:38:29.855Z,9.40
2023-03-03T03:41:19.263Z,9.05
2023-03-03T03:44:08.645Z,9.39
2023-03-03T03:46:58.027Z,9.36
2023-03-03T03:49:49.333Z,9.30
2023-03-03T03:52:40.028Z,9.33
2023-03-03T03:55:30.135Z,9.35
2023-03-03T03:58:20.632Z,9.30
2023-03-03T04:01:16.361Z,9.37
2023-03-03T04:04:09.839Z,9.37
2023-03-03T04:06:59.635Z,9.35
2023-03-03T04:09:51.245Z,9.32
2023-03-03T04:12:41.366Z,9.28
2023-03-03T04:15:34.883Z,9.25
2023-03-03T04:18:24.984Z,9.24
2023-03-03T04:21:15.826Z,9.19
2023-03-03T04:24:06.980Z,9.25
2023-03-03T04:26:58.033Z,9.26
2023-03-03T04:29:47.334Z,9.25
2023-03-03T04:32:36.689Z,9.22
2023-03-03T04:35:28.580Z,9.29
2023-03-03T04:38:19.197Z,9.29
2023-03-03T04:41:10.224Z,9.22
2023-03-03T04:44:02.821Z,9.29
2023-03-03T04:46:52.211Z,9.12
2023-03-03T04:49:42.107Z,9.24
2023-03-03T04:52:31.790Z,8.83
2023-03-03T04:55:21.661Z,9.16
2023-03-03T04:58:16.080Z,9.12
2023-03-03T05:01:07.771Z,9.04
2023-03-03T05:04:01.017Z,9.09
2023-03-03T05:06:50.272Z,9.10
2023-03-03T05:09:39.704Z,9.07
2023-03-03T05:12:29.337Z,9.10
2023-03-03T05:15:19.471Z,9.10
2023-03-03T05:18:11.302Z,9.08
2023-03-03T05:21:00.665Z,9.10
2023-03-03T05:23:49.859Z,9.08
2023-03-03T05:26:39.300Z,9.07
2023-03-03T05:29:31.500Z,9.06
2023-03-03T05:32:20.721Z,9.06
2023-03-03T05:35:12.018Z,9.04
2023-03-03T05:38:03.164Z,8.97
2023-03-03T05:40:54.797Z,8.97
2023-03-03T05:43:44.582Z,8.69
2023-03-03T05:46:34.019Z,8.98
2023-03-03T05:49:23.544Z,8.95
2023-03-03T05:52:17.406Z,8.89
2023-03-03T05:55:08.006Z,8.89
2023-03-03T05:57:57.369Z,8.88
2023-03-03T06:00:46.679Z,8.88
2023-03-03T06:03:36.033Z,8.90
2023-03-03T06:06:28.428Z,8.81
2023-03-03T06:09:19.335Z,8.86
2023-03-03T06:12:08.969Z,8.86
2023-03-03T06:14:58.214Z,8.87
2023-03-03T06:17:47.412Z,8.90
2023-03-03T06:20:36.758Z,8.86
2023-03-03T06:23:26.221Z,8.92
2023-03-03T06:26:17.289Z,8.93
2023-03-03T06:29:07.231Z,8.86
2023-03-03T06:31:56.767Z,8.81
2023-03-03T06:34:46.348Z,8.88
2023-03-03T06:37:35.611Z,8.89
2023-03-03T06:40:24.985Z,8.90
2023-03-03T06:43:15.883Z,8.93
2023-03-03T06:46:05.697Z,8.95
2023-03-03T06:48:55.578Z,8.94
2023-03-03T06:51:46.559Z,8.97
2023-03-03T06:54:35.961Z,8.96
2023-03-03T06:57:28.993Z,8.91
2023-03-03T07:00:25.043Z,9.00
2023-03-03T07:03:20.545Z,8.99
2023-03-03T07:06:22.870Z,9.00
2023-03-03T07:09:21.831Z,8.95
2023-03-03T07:12:16.940Z,8.90
2023-03-03T07:15:17.679Z,8.98
2023-03-03T07:18:26.704Z,8.96
2023-03-03T07:21:20.897Z,9.03
2023-03-03T07:24:29.013Z,9.09
2023-03-03T07:27:25.609Z,9.09
2023-03-03T07:30:29.101Z,9.05
2023-03-03T07:33:28.191Z,9.09
2023-03-03T07:36:30.514Z,9.08
2023-03-03T07:39:32.647Z,9.09
2023-03-03T07:42:27.885Z,9.00
2023-03-03T07:45:35.588Z,9.06
2023-03-03T07:48:32.910Z,9.02
2023-03-03T07:51:27.804Z,9.03
2023-03-03T07:54:32.063Z,9.06
2023-03-03T07:57:26.994Z,9.01
2023-03-03T08:01:13.566Z,9.09
2023-03-03T08:04:07.491Z,9.11
2023-03-03T08:06:58.690Z,9.05
2023-03-03T08:09:53.385Z,9.11
2023-03-03T08:12:45.207Z,9.08
2023-03-03T08:15:39.084Z,9.11
2023-03-03T08:18:35.801Z,9.12
2023-03-03T08:21:27.656Z,9.09
2023-03-03T08:24:16.935Z,9.12
2023-03-03T08:27:06.515Z,9.14
2023-03-03T08:29:55.727Z,9.17
2023-03-03T08:32:45.122Z,9.18
2023-03-03T08:35:34.416Z,9.19
2023-03-03T08:38:25.280Z,9.14
2023-03-03T08:41:14.964Z,9.17
2023-03-03T08:44:04.696Z,9.14
2023-03-03T08:46:53.865Z,9.19
2023-03-03T08:49:43.158Z,9.21
2023-03-03T08:52:32.542Z,9.23
2023-03-03T08:55:23.337Z,9.22
2023-03-03T08:58:12.589Z,8.89
2023-03-03T09:01:01.906Z,9.31
2023-03-03T09:03:51.212Z,9.26
2023-03-03T09:06:40.849Z,9.27
2023-03-03T09:09:30.163Z,9.31
2023-03-03T09:12:26.353Z,9.26
2023-03-03T09:15:23.650Z,9.21
2023-03-03T09:18:18.166Z,9.27
2023-03-03T09:21:24.350Z,9.27
2023-03-03T09:24:26.859Z,9.27
2023-03-03T09:27:28.461Z,9.27
2023-03-03T09:30:37.449Z,9.31
2023-03-03T09:33:41.850Z,9.35
2023-03-03T09:36:37.245Z,9.30
2023-03-03T09:39:28.328Z,9.33
2023-03-03T09:42:51.028Z,9.32
2023-03-03T09:45:59.003Z,9.35
2023-03-03T09:49:03.361Z,9.36
2023-03-03T09:52:23.190Z,9.35
2023-03-03T09:55:38.234Z,9.39
2023-03-03T09:58:47.673Z,9.35
2023-03-03T10:01:56.957Z,9.47
2023-03-03T10:05:16.360Z,9.48
2023-03-03T10:08:28.079Z,9.46
2023-03-03T10:11:26.958Z,9.43
2023-03-03T10:14:44.621Z,9.42
2023-03-03T10:17:49.633Z,9.33
2023-03-03T10:20:51.321Z,9.42
2023-03-03T10:23:58.896Z,9.41
2023-03-03T10:27:13.526Z,9.47
2023-03-03T10:30:14.563Z,9.46
2023-03-03T10:33:11.522Z,9.54
2023-03-03T10:36:20.033Z,9.51
2023-03-03T10:39:40.984Z,9.67
2023-03-03T10:43:07.860Z,9.75
2023-03-03T10:46:34.239Z,9.83
2023-03-03T10:49:44.955Z,9.92
2023-03-03T10:52:45.094Z,10.02
2023-03-03T10:55:42.086Z,10.15
2023-03-03T10:59:08.164Z,10.22
2023-03-03T11:02:02.561Z,10.22
2023-03-03T11:05:17.129Z,10.27
2023-03-03T11:08:13.029Z,10.20
2023-03-03T11:11:14.225Z,10.20
2023-03-03T11:14:11.317Z,10.15
2023-03-03T11:17:13.073Z,10.16
2023-03-03T11:20:13.010Z,10.09
2023-03-03T11:23:29.121Z,9.98
2023-03-03T11:26:31.165Z,9.91
2023-03-03T11:30:09.615Z,9.86
2023-03-03T11:33:06.688Z,9.80
2023-03-03T11:36:11.701Z,9.79
2023-03-03T11:39:03.402Z,9.84
2023-03-03T11:42:09.402Z,9.92
2023-03-03T11:45:04.399Z,9.97
2023-03-03T11:48:03.648Z,10.16
2023-03-03T11:51:01.105Z,10.36
2023-03-03T11:54:00.829Z,10.54
2023-03-03T11:56:50.544Z,10.75
2023-03-03T11:59:50.259Z,10.98
2023-03-03T12:03:14.438Z,11.05
2023-03-03T12:06:17.630Z,11.10
2023-03-03T12:09:37.404Z,11.12
2023-03-03T12:12:34.361Z,11.10
2023-03-03T12:15:34.827Z,10.99
2023-03-03T12:18:48.518Z,10.88
2023-03-03T12:21:55.928Z,10.58
2023-03-03T12:25:07.769Z,10.50
2023-03-03T12:28:05.693Z,10.38
2023-03-03T12:31:25.223Z,10.14
2023-03-03T12:34:25.478Z,9.95
2023-03-03T12:37:41.050Z,9.89
2023-03-03T12:40:35.097Z,9.87
2023-03-03T12:43:45.031Z,9.84
2023-03-03T12:46:45.991Z,9.77
2023-03-03T12:49:52.104Z,9.79
2023-03-03T12:53:00.000Z,9.79
2023-03-03T12:55:54.850Z,9.76
2023-03-03T12:58:55.737Z,9.75
2023-03-03T13:02:14.724Z,9.74
2023-03-03T13:05:20.852Z,9.68
2023-03-03T13:08:35.127Z,9.52
2023-03-03T13:11:55.172Z,9.32
2023-03-03T13:14:53.797Z,9.30
2023-03-03T13:17:53.696Z,9.31
2023-03-03T13:20:50.365Z,9.23
2023-03-03T13:23:52.527Z,9.09
2023-03-03T13:26:46.289Z,9.23
2023-03-03T13:29:41.807Z,9.22
2023-03-03T13:32:42.765Z,9.17
2023-03-03T13:35:42.420Z,9.19
2023-03-03T13:38:42.314Z,9.17
2023-03-03T13:41:50.909Z,9.10
2023-03-03T13:44:51.553Z,9.18
2023-03-03T13:47:54.422Z,9.20
2023-03-03T13:50:52.430Z,9.29
2023-03-03T13:53:53.963Z,9.46
2023-03-03T13:57:21.487Z,9.65
2023-03-03T14:00:27.922Z,9.92
2023-03-03T14:04:01.902Z,10.23
2023-03-03T14:07:09.847Z,10.45
2023-03-03T14:10:09.975Z,10.48
2023-03-03T14:13:07.874Z,10.51
2023-03-03T14:16:06.021Z,10.57
2023-03-03T14:19:04.289Z,10.78
2023-03-03T14:22:08.281Z,11.05
2023-03-03T14:25:09.748Z,11.26
2023-03-03T14:28:14.075Z,11.32
2023-03-03T14:31:22.685Z,11.31
2023-03-03T14:34:38.712Z,11.13
2023-03-03T14:37:30.774Z,11.04
2023-03-03T14:40:39.226Z,10.83
2023-03-03T14:43:42.838Z,10.65
2023-03-03T14:46:41.780Z,10.41
2023-03-03T14:49:36.566Z,10.16
2023-03-03T14:52:28.826Z,10.02
2023-03-03T14:55:37.284Z,9.71
2023-03-03T14:58:36.342Z,9.61
2023-03-03T15:01:33.163Z,9.45
2023-03-03T15:04:28.824Z,9.24
2023-03-03T15:07:32.847Z,9.26
2023-03-03T15:10:36.737Z,9.18
2023-03-03T15:13:36.617Z,9.15
2023-03-03T15:16:32.954Z,9.19
2023-03-03T15:19:49.492Z,9.22
2023-03-03T15:22:50.222Z,9.27
2023-03-03T15:25:53.722Z,9.41
2023-03-03T15:29:00.609Z,9.53
2023-03-03T15:32:00.457Z,9.65
2023-03-03T15:35:00.227Z,9.80
2023-03-03T15:37:58.339Z,9.95
2023-03-03T15:40:54.501Z,9.95
2023-03-03T15:43:58.679Z,10.04
2023-03-03T15:47:24.419Z,10.23
2023-03-03T15:50:31.465Z,10.21
2023-03-03T15:53:45.147Z,10.28
2023-03-03T15:56:42.861Z,10.36
2023-03-03T16:00:07.336Z,10.42
2023-03-03T16:03:14.875Z,10.45
2023-03-03T16:06:12.456Z,10.34
2023-03-03T16:09:11.185Z,10.36
2023-03-03T16:12:13.797Z,10.25
2023-03-03T16:15:43.353Z,10.12
2023-03-03T16:18:50.894Z,10.18
2023-03-03T16:22:12.499Z,10.12
2023-03-03T16:25:21.907Z,10.02
2023-03-03T16:28:20.359Z,9.98
2023-03-03T16:31:18.481Z,9.99
2023-03-03T16:34:18.774Z,9.81
2023-03-03T16:37:19.866Z,9.74
2023-03-03T16:40:19.301Z,9.56
2023-03-03T16:43:24.404Z,9.34
2023-03-03T16:46:31.344Z,9.25
2023-03-03T16:49:29.899Z,9.25
2023-03-03T16:52:26.825Z,9.23
2023-03-03T16:55:21.240Z,9.19
2023-03-03T16:58:31.809Z,9.13
2023-03-03T17:01:32.596Z,9.09
2023-03-03T17:04:41.110Z,9.01
2023-03-03T17:07:45.644Z,9.10
2023-03-03T17:10:43.526Z,9.10
2023-03-03T17:14:04.418Z,9.07
2023-03-03T17:17:03.987Z,9.10
2023-03-03T17:20:09.173Z,9.08
2023-03-03T17:23:20.057Z,8.94
2023-03-03T17:26:32.681Z,8.93
2023-03-03T17:30:01.893Z,8.97
2023-03-03T17:33:15.174Z,8.86
2023-03-03T17:36:26.558Z,8.86
2023-03-03T17:39:51.770Z,8.77
2023-03-03T17:42:52.200Z,8.65
2023-03-03T17:45:45.970Z,8.77
2023-03-03T17:49:08.040Z,8.71
2023-03-03T17:52:19.602Z,8.74
2023-03-03T17:55:25.616Z,8.68
2023-03-03T17:58:49.233Z,8.73
2023-03-03T18:02:00.992Z,8.77
2023-03-03T18:05:15.020Z,8.78
2023-03-03T18:08:20.960Z,8.82
2023-03-03T18:11:24.452Z,8.82
2023-03-03T18:14:53.762Z,8.79
2023-03-03T18:18:03.978Z,8.75
2023-03-03T18:21:04.435Z,8.75
2023-03-03T18:23:53.712Z,8.73
2023-03-03T18:26:43.860Z,8.71
2023-03-03T18:29:33.210Z,8.70
2023-03-03T18:32:25.273Z,8.65
2023-03-03T18:35:26.357Z,8.71
2023-03-03T18:38:39.661Z,8.74
2023-03-03T18:41:31.540Z,8.78
2023-03-03T18:44:30.694Z,8.78
2023-03-03T18:47:43.194Z,8.78
2023-03-03T18:50:36.889Z,8.79
2023-03-03T18:53:31.036Z,8.80
2023-03-03T18:56:50.975Z,8.77
2023-03-03T18:59:55.729Z,8.80
2023-03-03T19:02:54.678Z,8.79
2023-03-03T19:05:54.240Z,8.77
2023-03-03T19:08:58.550Z,8.69
2023-03-03T19:11:56.241Z,8.68
2023-03-03T19:14:48.016Z,8.69
2023-03-03T19:17:59.038Z,8.72
2023-03-03T19:20:57.573Z,8.71
2023-03-03T19:24:00.209Z,8.74
2023-03-03T19:27:36.435Z,8.77
2023-03-03T19:30:53.031Z,8.80
2023-03-03T19:33:57.297Z,8.79
2023-03-03T19:37:06.064Z,8.83
2023-03-03T19:40:13.509Z,8.78
2023-03-03T19:43:18.705Z,8.76
2023-03-03T19:46:33.715Z,8.77
2023-03-03T19:50:10.807Z,8.76
2023-03-03T19:53:16.575Z,8.71
2023-03-03T19:56:22.574Z,8.69
2023-03-03T19:59:27.009Z,8.74
2023-03-03T20:02:45.058Z,8.74
2023-03-03T20:05:43.341Z,8.74
2023-03-03T20:08:42.451Z,8.71
2023-03-03T20:11:48.431Z,8.75
2023-03-03T20:14:49.214Z,8.77
2023-03-03T20:18:01.143Z,8.74
2023-03-03T20:21:13.466Z,8.72
2023-03-03T20:24:25.600Z,8.80
2023-03-03T20:27:20.797Z,8.79
2023-03-03T20:30:48.656Z,8.82
2023-03-03T20:33:51.177Z,8.81
2023-03-03T20:36:57.325Z,8.80
2023-03-03T20:40:04.689Z,8.74
2023-03-03T20:43:06.535Z,8.75
2023-03-03T20:46:09.855Z,8.66
2023-03-03T20:49:38.760Z,8.61
2023-03-03T20:52:41.588Z,8.64
2023-03-03T20:55:47.663Z,8.63
2023-03-03T20:58:52.948Z,8.63
2023-03-03T21:01:53.282Z,8.62
2023-03-03T21:04:42.535Z,8.58
2023-03-03T21:07:31.802Z,8.65
2023-03-03T21:10:25.183Z,8.59
2023-03-03T21:13:30.041Z,8.56
2023-03-03T21:16:33.324Z,8.57
2023-03-03T21:19:28.769Z,8.57
2023-03-03T21:22:18.241Z,8.57
2023-03-03T21:25:08.582Z,8.58
2023-03-03T21:28:18.147Z,8.58
2023-03-03T21:31:16.961Z,8.56
2023-03-03T21:34:29.074Z,8.56
2023-03-03T21:37:49.997Z,8.57
2023-03-03T21:40:39.945Z,8.55
2023-03-03T21:43:37.478Z,8.55
2023-03-03T21:46:27.352Z,8.60
2023-03-03T21:49:16.644Z,8.61
2023-03-03T21:52:07.746Z,8.62
2023-03-03T21:54:56.970Z,8.63
2023-03-03T21:57:46.244Z,8.62
2023-03-03T22:00:35.427Z,8.48
2023-03-03T22:03:26.040Z,8.65
2023-03-03T22:06:15.249Z,8.63
2023-03-03T22:09:06.392Z,8.61
2023-03-03T22:11:55.687Z,8.57
2023-03-03T22:14:45.019Z,8.58
2023-03-03T22:17:34.188Z,8.57
2023-03-03T22:20:23.368Z,8.53
2023-03-03T22:23:12.855Z,8.57
2023-03-03T22:26:03.569Z,8.61
2023-03-03T22:28:52.838Z,8.60
2023-03-03T22:31:42.070Z,8.66
2023-03-03T22:34:31.387Z,8.67
2023-03-03T22:37:20.586Z,8.67
2023-03-03T22:40:11.789Z,8.69
2023-03-03T22:43:02.406Z,8.68
2023-03-03T22:45:51.937Z,8.61
2023-03-03T22:48:41.855Z,8.59
2023-03-03T22:51:31.083Z,8.56
2023-03-03T22:54:20.311Z,8.54
2023-03-03T22:57:13.240Z,8.46
2023-03-03T23:00:03.980Z,8.41
2023-03-03T23:02:53.503Z,8.51
2023-03-03T23:05:42.886Z,8.49
2023-03-03T23:08:32.190Z,8.49
2023-03-03T23:11:21.808Z,8.51
2023-03-03T23:14:11.106Z,8.52
2023-03-03T23:17:01.856Z,8.45
2023-03-03T23:19:51.781Z,8.49
2023-03-03T23:22:41.043Z,8.53
2023-03-03T23:25:30.618Z,8.54
2023-03-03T23:28:20.054Z,8.56
2023-03-03T23:31:09.480Z,8.56
2023-03-03T23:34:00.217Z,8.59
2023-03-03T23:36:49.449Z,8.61
2023-03-03T23:39:40.670Z,8.63
2023-03-03T23:42:30.996Z,8.63
2023-03-03T23:45:20.336Z,8.62
2023-03-03T23:48:09.620Z,8.63
2023-03-03T23:51:01.581Z,8.62
2023-03-03T23:53:50.808Z,8.64
2023-03-03T23:56:40.062Z,8.66
2023-03-03T23:59:29.328Z,8.68
